Thursday, April 19, 2018, 4:21 PM CDT
Back to Local

KEHA, Elkhart, Elkhart-morton County Airport

Location: Elkhart, KS, United States Lat: 37
Local Time: 4:21 PM CDT (21:21 GMT) Lon: -101.883
Time Zone: US/Central Elev: 3622 ft

Show me the last for .
Show Decoded

2018-04-19 15:55 METAR KEHA 192055Z AUTO 16021G27KT 10SM CLR 21/M01 A3024 RMK AO2 T02051006 =
2018-04-19 15:35 METAR KEHA 192035Z AUTO 15020G25KT 10SM CLR 20/M02 A3025 RMK AO2 T02011019 =
2018-04-19 15:15 METAR KEHA 192015Z AUTO 16018G26KT 10SM CLR 20/M01 A3028 RMK AO2 T01971011 =
2018-04-19 14:55 METAR KEHA 191955Z AUTO 16016G25KT 10SM CLR 19/M01 A3029 RMK AO2 T01911008 =
2018-04-19 14:35 METAR KEHA 191935Z AUTO 16021G25KT 10SM CLR 18/M01 A3030 RMK AO2 T01841015 =
2018-04-19 14:15 METAR KEHA 191915Z AUTO 16015G20KT 10SM CLR 18/00 A3032 RMK AO2 T01821004 =
2018-04-19 13:55 METAR KEHA 191855Z AUTO 16017G24KT 10SM CLR 18/00 A3032 RMK AO2 T01801003 =
2018-04-19 13:35 METAR KEHA 191835Z AUTO 16018G21KT 10SM CLR 17/00 A3034 RMK AO2 T01670000 =
2018-04-19 13:15 METAR KEHA 191815Z AUTO 16018G23KT 10SM CLR 16/00 A3036 RMK AO2 T01571004 =
2018-04-19 12:55 METAR KEHA 191755Z AUTO 17016G23KT 10SM CLR 16/00 A3037 RMK AO2 T01620000 10162
                 20002 =
2018-04-19 12:35 METAR KEHA 191735Z AUTO 17015G22KT 10SM CLR 16/00 A3038 RMK AO2 T01600000 =
2018-04-19 12:15 METAR KEHA 191715Z AUTO 18016G22KT 10SM CLR 16/00 A3039 RMK AO2 T01600001 =
2018-04-19 11:55 METAR KEHA 191655Z AUTO 18017G22KT 10SM CLR 15/00 A3040 RMK AO2 T01511001 =
2018-04-19 11:35 METAR KEHA 191635Z AUTO 16014G17KT 10SM CLR 14/00 A3040 RMK AO2 T01391001 =
2018-04-19 11:15 METAR KEHA 191615Z AUTO 17013KT 10SM CLR 13/00 A3040 RMK AO2 T01321001 =
2018-04-19 10:55 METAR KEHA 191555Z AUTO 16013G21KT 10SM CLR 12/00 A3040 RMK AO2 T01221005 =
2018-04-19 10:35 METAR KEHA 191535Z AUTO 15014G19KT 10SM CLR 12/00 A3041 RMK AO2 T01171005 =
2018-04-19 10:15 METAR KEHA 191515Z AUTO 15014KT 10SM CLR 11/00 A3041 RMK AO2 T01101004 =
2018-04-19 09:55 METAR KEHA 191455Z AUTO 15015KT 10SM CLR 10/00 A3041 RMK AO2 T01041005 =
2018-04-19 09:35 METAR KEHA 191435Z AUTO 15015KT 10SM CLR 10/00 A3040 RMK AO2 T00971004 =
2018-04-19 09:15 METAR KEHA 191415Z AUTO 16015G20KT 10SM CLR 09/M01 A3039 RMK AO2 T00871006 =
2018-04-19 08:55 METAR KEHA 191355Z AUTO 16016KT 10SM CLR 08/M01 A3039 RMK AO2 T00781011 =
2018-04-19 08:35 METAR KEHA 191335Z AUTO 15012KT 10SM CLR 06/M02 A3038 RMK AO2 T00641018 =
2018-04-19 08:15 METAR KEHA 191315Z AUTO 15010KT 10SM CLR 04/M02 A3038 RMK AO2 T00411025 =
2018-04-19 07:55 METAR KEHA 191255Z AUTO 15009KT 10SM CLR 02/M03 A3037 RMK AO2 T00221031 =
2018-04-19 07:35 METAR KEHA 191235Z AUTO 14009KT 10SM CLR 01/M04 A3037 RMK AO2 T00091039 =
2018-04-19 07:15 METAR KEHA 191215Z AUTO 14008KT 10SM CLR 00/M04 A3036 RMK AO2 T00031045 =
2018-04-19 06:55 METAR KEHA 191155Z AUTO 15009KT 10SM CLR 00/M04 A3036 RMK AO2 T00021045 10070
                 20002 =
2018-04-19 06:35 METAR KEHA 191135Z AUTO 14008KT 10SM CLR 00/M05 A3035 RMK AO2 T00021046 =
2018-04-19 06:15 METAR KEHA 191115Z AUTO 14008KT 10SM CLR 01/M04 A3035 RMK AO2 T00071045 =
2018-04-19 05:55 METAR KEHA 191055Z AUTO 15009KT 10SM CLR 01/M04 A3034 RMK AO2 T00101045 =
2018-04-19 05:35 METAR KEHA 191035Z AUTO 14008KT 10SM CLR 01/M05 A3033 RMK AO2 T00081046 =
2018-04-19 05:15 METAR KEHA 191015Z AUTO 14008KT 10SM CLR 02/M04 A3032 RMK AO2 T00151045 =
2018-04-19 04:55 METAR KEHA 190955Z AUTO 14008KT 10SM CLR 02/M04 A3032 RMK AO2 T00191042 =
2018-04-19 04:35 METAR KEHA 190935Z AUTO 13009KT 10SM CLR 02/M04 A3032 RMK AO2 T00201045 =
2018-04-19 04:15 METAR KEHA 190915Z AUTO 14008KT 10SM CLR 01/M05 A3032 RMK AO2 T00121055 =
2018-04-19 03:55 METAR KEHA 190855Z AUTO 13008KT 10SM CLR 02/M05 A3032 RMK AO2 T00211051 =
2018-04-19 03:35 METAR KEHA 190835Z AUTO 13008KT 10SM CLR 03/M05 A3032 RMK AO2 T00311048 =
2018-04-19 03:15 METAR KEHA 190815Z AUTO 12009KT 10SM CLR 05/M05 A3032 RMK AO2 T00521047 =
2018-04-19 02:55 METAR KEHA 190755Z AUTO 11009KT 10SM CLR 05/M05 A3032 RMK AO2 T00511054 PNO =
2018-04-19 02:35 METAR KEHA 190735Z AUTO 14006KT 10SM CLR 04/M08 A3032 RMK AO2 T00351081 =
2018-04-19 02:15 METAR KEHA 190715Z AUTO 14006KT 10SM CLR 03/M08 A3032 RMK AO2 T00341085 =
2018-04-19 01:55 METAR KEHA 190655Z AUTO 14006KT 10SM CLR 04/M08 A3032 RMK AO2 T00391083 =
2018-04-19 01:35 METAR KEHA 190635Z AUTO 14005KT 10SM CLR 06/M07 A3031 RMK AO2 T00601070 =
2018-04-19 01:15 METAR KEHA 190615Z AUTO 11007KT 10SM CLR 07/M06 A3031 RMK AO2 T00701062 =
2018-04-19 00:55 METAR KEHA 190555Z AUTO 10006KT 10SM CLR 07/M07 A3031 RMK AO2 T00661066 10178
                 20065 401910035 =
2018-04-19 00:35 METAR KEHA 190535Z AUTO 09006KT 10SM CLR 07/M07 A3030 RMK AO2 T00671070 =
2018-04-19 00:15 METAR KEHA 190515Z AUTO 09007KT 10SM CLR 07/M07 A3029 RMK AO2 T00701072 =
2018-04-18 23:55 METAR KEHA 190455Z AUTO 09008KT 10SM CLR 08/M07 A3029 RMK AO2 T00751074 =
2018-04-18 23:35 METAR KEHA 190435Z AUTO 09007KT 10SM CLR 07/M07 A3029 RMK AO2 T00721073 =
2018-04-18 23:15 METAR KEHA 190415Z AUTO 09007KT 10SM CLR 08/M07 A3029 RMK AO2 T00801068 =
2018-04-18 22:55 METAR KEHA 190355Z AUTO 08007KT 10SM CLR 08/M07 A3028 RMK AO2 T00821072 =
2018-04-18 22:35 METAR KEHA 190335Z AUTO 08008KT 10SM CLR 08/M07 A3027 RMK AO2 T00841075 =
2018-04-18 22:15 METAR KEHA 190315Z AUTO 08007KT 10SM CLR 09/M07 A3027 RMK AO2 T00901075 =
2018-04-18 21:55 METAR KEHA 190255Z AUTO 08006KT 10SM CLR 09/M07 A3026 RMK AO2 T00931075 =
2018-04-18 21:35 METAR KEHA 190235Z AUTO 07006KT 10SM CLR 10/M08 A3026 RMK AO2 T01041076 =
2018-04-18 21:15 METAR KEHA 190215Z AUTO 07006KT 10SM CLR 11/M08 A3025 RMK AO2 T01111080 =
2018-04-18 20:55 METAR KEHA 190155Z AUTO 05004KT 10SM CLR 12/M08 A3025 RMK AO2 T01171080 =
2018-04-18 20:35 METAR KEHA 190135Z AUTO 04005KT 10SM CLR 12/M08 A3024 RMK AO2 T01231081 =
2018-04-18 20:15 METAR KEHA 190115Z AUTO 03005KT 10SM CLR 14/M08 A3024 RMK AO2 T01391078 =
2018-04-18 19:55 METAR KEHA 190055Z AUTO 03008KT 10SM CLR 16/M07 A3023 RMK AO2 T01591070 =
2018-04-18 19:35 METAR KEHA 190035Z AUTO 03010KT 10SM CLR 17/M07 A3023 RMK AO2 T01701068 =
2018-04-18 19:15 METAR KEHA 190015Z AUTO 01011KT 10SM CLR 18/M07 A3023 RMK AO2 T01761067 =
2018-04-18 18:55 METAR KEHA 182355Z AUTO 01010G15KT 10SM CLR 18/M07 A3022 RMK AO2 T01781069 10191
                 20163 =
2018-04-18 18:35 METAR KEHA 182335Z AUTO 01013KT 10SM CLR 18/M07 A3022 RMK AO2 T01811066 =
2018-04-18 18:15 METAR KEHA 182315Z AUTO 01010G17KT 10SM CLR 18/M07 A3022 RMK AO2 T01821066 =
2018-04-18 17:55 METAR KEHA 182255Z AUTO 35014G21KT 10SM CLR 19/M07 A3022 RMK AO2 T01871066 =
2018-04-18 17:35 METAR KEHA 182235Z AUTO 01013G17KT 10SM CLR 19/M06 A3021 RMK AO2 T01871064 =
2018-04-18 17:15 METAR KEHA 182215Z AUTO 36016G19KT 10SM CLR 19/M06 A3021 RMK AO2 T01891065 =
2018-04-18 16:55 METAR KEHA 182155Z AUTO 35013G23KT 10SM CLR 19/M07 A3021 RMK AO2 T01861068 =
2018-04-18 16:35 METAR KEHA 182135Z AUTO 01011G22KT 10SM CLR 19/M07 A3022 RMK AO2 T01851067 =

Support USWX by starting your Amazon purchase here.